createdAt,value
2023-10-08T06:37:45.593Z,19.58
2023-10-08T06:40:15.793Z,19.66
2023-10-08T06:42:46.103Z,19.69
2023-10-08T06:45:14.919Z,19.74
2023-10-08T06:47:43.929Z,19.81
2023-10-08T06:58:16.976Z,20.09
2023-10-08T07:00:47.275Z,20.16
2023-10-08T07:03:16.874Z,20.14
2023-10-08T07:05:48.465Z,20.26
2023-10-08T07:08:15.140Z,20.31
2023-10-08T07:10:41.613Z,20.41
2023-10-08T07:13:09.046Z,20.51
2023-10-08T07:15:35.901Z,20.49
2023-10-08T07:18:02.369Z,20.61
2023-10-08T07:20:28.823Z,20.68
2023-10-08T07:22:55.254Z,20.79
2023-10-08T07:25:24.555Z,20.83
2023-10-08T07:27:50.960Z,20.92
2023-10-08T07:30:17.395Z,21.02
2023-10-08T07:32:43.922Z,21.11
2023-10-08T07:35:10.391Z,21.16
2023-10-08T07:37:36.848Z,21.26
2023-10-08T07:40:03.443Z,21.19
2023-10-08T07:42:29.992Z,21.36
2023-10-08T07:44:56.580Z,21.50
2023-10-08T07:47:23.252Z,21.54
2023-10-08T07:49:49.846Z,21.61
2023-10-08T07:52:16.430Z,21.68
2023-10-08T07:54:42.984Z,21.83
2023-10-08T07:57:09.542Z,21.83
2023-10-08T07:59:37.316Z,21.78
2023-10-08T08:02:05.762Z,21.91
2023-10-08T08:04:32.383Z,22.10
2023-10-08T08:06:59.008Z,22.18
2023-10-08T08:09:25.540Z,22.34
2023-10-08T08:11:52.210Z,22.38
2023-10-08T08:14:18.771Z,22.42
2023-10-08T08:16:45.620Z,22.48
2023-10-08T08:19:12.225Z,22.48
2023-10-08T08:21:38.765Z,22.52
2023-10-08T08:24:05.653Z,22.50
2023-10-08T08:26:32.367Z,22.57
2023-10-08T08:29:03.735Z,22.30
2023-10-08T08:31:30.688Z,22.48
2023-10-08T08:33:57.357Z,22.50
2023-10-08T08:36:25.120Z,22.53
2023-10-08T08:38:52.425Z,22.51
2023-10-08T08:41:19.881Z,22.34
2023-10-08T08:43:53.179Z,22.08
2023-10-08T08:46:19.839Z,22.20
2023-10-08T08:48:49.822Z,22.12
2023-10-08T08:51:19.538Z,22.24
2023-10-08T08:53:46.087Z,22.13
2023-10-08T08:56:13.529Z,22.08
2023-10-08T08:58:41.854Z,22.39
2023-10-08T09:01:12.768Z,22.26
2023-10-08T09:03:39.621Z,22.27
2023-10-08T09:06:06.737Z,22.60
2023-10-08T09:08:37.381Z,22.66
2023-10-08T09:11:04.297Z,22.70
2023-10-08T09:13:33.070Z,22.75
2023-10-08T09:16:08.421Z,22.70
2023-10-08T09:18:36.038Z,22.95
2023-10-08T09:21:20.954Z,22.95
2023-10-08T09:23:53.472Z,22.85
2023-10-08T09:26:24.533Z,23.05
2023-10-08T09:28:51.421Z,22.96
2023-10-08T09:31:18.452Z,23.05
2023-10-08T09:33:55.528Z,23.11
2023-10-08T09:36:23.460Z,23.22
2023-10-08T09:38:51.842Z,23.36
2023-10-08T09:41:20.252Z,23.33
2023-10-08T09:43:48.730Z,23.43
2023-10-08T09:46:24.283Z,23.49
2023-10-08T09:48:52.834Z,23.59
2023-10-08T09:51:19.614Z,23.54
2023-10-08T09:54:04.511Z,23.51
2023-10-08T09:56:32.757Z,23.62
2023-10-08T09:59:00.206Z,23.74
2023-10-08T10:01:28.217Z,23.72
2023-10-08T10:03:56.040Z,23.75
2023-10-08T10:06:23.671Z,23.93
2023-10-08T10:08:50.402Z,24.00
2023-10-08T10:11:17.222Z,23.91
2023-10-08T10:13:46.121Z,24.14
2023-10-08T10:16:14.963Z,24.07
2023-10-08T10:18:45.407Z,24.13
2023-10-08T10:21:11.959Z,23.99
2023-10-08T10:23:49.446Z,23.78
2023-10-08T10:26:23.543Z,23.91
2023-10-08T10:29:08.663Z,23.86
2023-10-08T10:31:35.835Z,23.64
2023-10-08T10:34:06.765Z,23.85
2023-10-08T10:36:34.550Z,23.59
2023-10-08T10:39:01.147Z,23.66
2023-10-08T10:41:27.749Z,23.51
2023-10-08T10:43:54.395Z,23.70
2023-10-08T10:46:20.953Z,23.58
2023-10-08T10:48:47.732Z,23.83
2023-10-08T10:51:14.782Z,23.74
2023-10-08T10:53:41.862Z,23.93
2023-10-08T10:56:08.565Z,24.06
2023-10-08T10:58:35.164Z,23.99
2023-10-08T11:01:01.762Z,23.68
2023-10-08T11:03:28.635Z,23.64
2023-10-08T11:06:00.997Z,23.97
2023-10-08T11:08:28.695Z,23.87
2023-10-08T11:10:55.535Z,24.03
2023-10-08T11:13:25.312Z,24.15
2023-10-08T11:15:52.306Z,23.97
2023-10-08T11:18:22.494Z,24.13
2023-10-08T11:20:51.315Z,24.09
2023-10-08T11:23:38.467Z,24.15
2023-10-08T11:26:06.265Z,24.22
2023-10-08T11:28:37.863Z,24.20
2023-10-08T11:31:05.871Z,24.40
2023-10-08T11:33:32.605Z,24.32
2023-10-08T11:36:01.930Z,24.44
2023-10-08T11:38:39.374Z,24.50
2023-10-08T11:41:16.884Z,24.63
2023-10-08T11:43:43.450Z,24.76
2023-10-08T11:46:10.037Z,24.70
2023-10-08T11:48:36.711Z,24.78
2023-10-08T11:51:03.424Z,24.75
2023-10-08T11:53:30.074Z,24.59
2023-10-08T11:55:56.863Z,24.55
2023-10-08T11:58:23.950Z,24.70
2023-10-08T12:00:50.609Z,24.80
2023-10-08T12:03:24.064Z,24.70
2023-10-08T12:09:44.048Z,25.16
2023-10-08T12:12:42.841Z,25.27
2023-10-08T12:15:29.369Z,25.10
2023-10-08T12:18:38.366Z,24.95
2023-10-08T12:39:31.656Z,25.85
2023-10-08T12:42:04.660Z,26.11
2023-10-08T12:44:32.407Z,26.21
2023-10-08T12:47:00.070Z,26.24
2023-10-08T12:49:30.729Z,26.49
2023-10-08T12:52:05.327Z,26.50
2023-10-08T12:54:41.480Z,26.92
2023-10-08T12:57:12.015Z,26.90
2023-10-08T12:59:38.473Z,27.13
2023-10-08T13:02:05.055Z,27.23
2023-10-08T13:04:31.488Z,27.51
2023-10-08T13:06:59.872Z,27.53
2023-10-08T13:09:26.547Z,27.87
2023-10-08T13:11:53.611Z,27.84
2023-10-08T13:14:20.243Z,28.23
2023-10-08T13:16:47.113Z,27.99
2023-10-08T13:19:14.067Z,27.95
2023-10-08T13:21:40.788Z,28.28
2023-10-08T13:24:07.767Z,28.37
2023-10-08T13:26:34.382Z,28.41
2023-10-08T13:29:01.416Z,28.40
2023-10-08T13:31:28.676Z,28.17
2023-10-08T13:33:55.235Z,28.78
2023-10-08T13:36:21.875Z,28.84
2023-10-08T13:38:48.701Z,29.02
2023-10-08T13:41:15.640Z,29.25
2023-10-08T13:43:47.273Z,29.51
2023-10-08T13:46:16.341Z,29.63
2023-10-08T13:48:44.908Z,29.55
2023-10-08T13:51:11.383Z,29.22
2023-10-08T13:53:38.226Z,28.99
2023-10-08T13:56:04.861Z,29.07
2023-10-08T13:58:32.221Z,29.16
2023-10-08T14:00:58.827Z,29.13
2023-10-08T14:03:25.378Z,29.43
2023-10-08T14:05:51.903Z,29.70
2023-10-08T14:08:21.584Z,30.10
2023-10-08T14:10:47.980Z,30.11
2023-10-08T14:13:14.355Z,30.38
2023-10-08T14:15:40.839Z,30.84
2023-10-08T14:18:07.380Z,31.17
2023-10-08T14:20:33.810Z,31.71
2023-10-08T14:23:00.209Z,31.76
2023-10-08T14:25:27.811Z,32.20
2023-10-08T14:27:54.667Z,32.30
2023-10-08T14:30:21.373Z,32.70
2023-10-08T14:32:48.515Z,33.04
2023-10-08T14:35:15.603Z,33.28
2023-10-08T14:37:42.175Z,33.59
2023-10-08T14:40:09.053Z,33.79
2023-10-08T14:42:35.577Z,33.86
2023-10-08T14:45:02.430Z,34.10
2023-10-08T14:47:29.059Z,34.25
2023-10-08T14:49:55.705Z,34.30
2023-10-08T14:52:22.458Z,34.37
2023-10-08T14:54:51.265Z,34.39
2023-10-08T14:57:17.877Z,34.22
2023-10-08T14:59:44.528Z,33.83
2023-10-08T15:02:11.144Z,34.05
2023-10-08T15:04:38.400Z,34.06
2023-10-08T15:07:05.103Z,34.04
2023-10-08T15:09:31.691Z,34.18
2023-10-08T15:11:58.419Z,34.01
2023-10-08T15:14:25.113Z,34.27
2023-10-08T15:16:51.794Z,34.32
2023-10-08T15:19:21.732Z,34.46
2023-10-08T15:21:49.133Z,34.50
2023-10-08T15:24:15.743Z,34.05
2023-10-08T15:26:42.361Z,34.14
2023-10-08T15:29:08.940Z,33.47
2023-10-08T15:31:35.511Z,33.51
2023-10-08T15:34:02.049Z,33.53
2023-10-08T15:36:28.661Z,33.53
2023-10-08T15:38:55.298Z,33.71
2023-10-08T15:41:21.889Z,33.61
2023-10-08T15:43:52.153Z,33.59
2023-10-08T15:46:19.281Z,33.44
2023-10-08T15:48:46.022Z,33.38
2023-10-08T15:51:13.080Z,33.23
2023-10-08T15:53:39.757Z,33.08
2023-10-08T15:56:06.516Z,32.94
2023-10-08T15:58:33.079Z,33.00
2023-10-08T16:00:59.668Z,32.84
2023-10-08T16:03:26.402Z,32.55
2023-10-08T16:05:53.504Z,32.35
2023-10-08T16:08:20.091Z,32.06
2023-10-08T16:10:46.631Z,31.76
2023-10-08T16:13:13.273Z,31.45
2023-10-08T16:15:39.904Z,31.10
2023-10-08T16:18:07.119Z,30.79
2023-10-08T16:20:33.752Z,30.48
2023-10-08T16:23:00.305Z,30.25
2023-10-08T16:25:26.891Z,30.00
2023-10-08T16:27:54.296Z,29.75
2023-10-08T16:30:24.041Z,29.44
2023-10-08T16:32:52.848Z,29.31
2023-10-08T16:35:20.611Z,29.11
2023-10-08T16:37:48.343Z,28.88
2023-10-08T16:40:14.913Z,28.70
2023-10-08T16:42:41.561Z,28.54
2023-10-08T16:45:08.604Z,28.37
2023-10-08T16:47:38.142Z,28.17
2023-10-08T16:50:05.354Z,28.01
2023-10-08T16:52:32.043Z,27.83
2023-10-08T16:54:58.551Z,27.64
2023-10-08T16:57:25.206Z,27.50
2023-10-08T16:59:51.741Z,27.27
2023-10-08T17:02:18.388Z,27.14
2023-10-08T17:04:45.240Z,27.00
2023-10-08T17:07:11.779Z,26.82
2023-10-08T17:09:38.337Z,26.62
2023-10-08T17:12:05.148Z,26.45
2023-10-08T17:14:31.716Z,26.33
2023-10-08T17:16:58.440Z,26.20
2023-10-08T17:19:24.961Z,26.07
2023-10-08T17:21:51.569Z,25.94
2023-10-08T17:24:18.351Z,25.82
2023-10-08T17:26:45.661Z,25.69
2023-10-08T17:29:12.571Z,25.60
2023-10-08T17:31:39.297Z,25.52
2023-10-08T17:34:07.346Z,25.42
2023-10-08T17:36:35.418Z,25.36
2023-10-08T17:39:03.547Z,25.27
2023-10-08T17:41:30.229Z,25.17
2023-10-08T17:43:56.889Z,25.06
2023-10-08T17:46:23.635Z,25.04
2023-10-08T17:48:50.294Z,24.94
2023-10-08T17:51:17.136Z,24.84
2023-10-08T17:53:43.968Z,24.80
2023-10-08T17:56:10.543Z,24.72
2023-10-08T17:58:38.412Z,24.65
2023-10-08T18:01:14.920Z,24.59
2023-10-08T18:03:42.022Z,24.55
2023-10-08T18:06:08.631Z,24.48
2023-10-08T18:08:35.175Z,24.43
2023-10-08T18:11:01.550Z,24.38
2023-10-08T18:13:28.847Z,24.34
2023-10-08T18:15:55.408Z,24.32
2023-10-08T18:18:21.927Z,24.27
2023-10-08T18:20:48.523Z,24.27
2023-10-08T18:23:15.225Z,24.20
2023-10-08T18:25:41.709Z,24.19
2023-10-08T18:28:08.286Z,24.18
2023-10-08T18:30:35.042Z,24.18
2023-10-08T18:33:01.635Z,24.12
2023-10-08T18:35:28.368Z,24.10
2023-10-08T18:37:55.021Z,24.04
2023-10-08T18:40:21.615Z,24.00
2023-10-08T18:42:48.237Z,23.95
2023-10-08T18:45:15.134Z,23.90
2023-10-08T18:47:41.936Z,23.89
2023-10-08T18:50:15.520Z,23.83
2023-10-08T18:52:42.894Z,23.77
2023-10-08T18:55:09.974Z,23.73
2023-10-08T18:57:37.572Z,23.69
2023-10-08T19:00:05.376Z,23.66
2023-10-08T19:02:32.095Z,23.63
2023-10-08T19:04:58.842Z,23.60
2023-10-08T19:07:25.506Z,23.58
2023-10-08T19:09:56.671Z,23.52
2023-10-08T19:12:23.601Z,23.47
2023-10-08T19:14:50.155Z,23.43
2023-10-08T19:17:16.762Z,23.40
2023-10-08T19:19:43.434Z,23.35
2023-10-08T19:22:09.956Z,23.34
2023-10-08T19:24:36.544Z,23.29
2023-10-08T19:27:03.528Z,23.26
2023-10-08T19:29:30.144Z,23.26
2023-10-08T19:31:58.878Z,23.25
2023-10-08T19:34:25.843Z,23.27
2023-10-08T19:36:52.649Z,23.21
2023-10-08T19:39:21.446Z,23.20
2023-10-08T19:41:49.524Z,23.18
2023-10-08T19:44:19.773Z,23.16
2023-10-08T19:47:23.174Z,23.14
2023-10-08T19:50:03.596Z,23.07
2023-10-08T19:52:30.501Z,23.06
2023-10-08T19:55:02.501Z,23.05
2023-10-08T19:57:30.394Z,23.01
2023-10-08T19:59:57.639Z,22.99
2023-10-08T20:02:24.220Z,22.93
2023-10-08T20:04:50.730Z,22.90
2023-10-08T20:07:17.410Z,22.89
2023-10-08T20:09:44.037Z,22.83
2023-10-08T20:12:10.598Z,22.81
2023-10-08T20:14:37.480Z,22.81
2023-10-08T20:17:04.304Z,22.78
2023-10-08T20:19:32.719Z,22.75
2023-10-08T20:21:59.383Z,22.74
2023-10-08T20:24:28.576Z,22.73
2023-10-08T20:26:55.193Z,22.71
2023-10-08T20:32:06.814Z,22.71
2023-10-08T20:34:33.318Z,22.70
2023-10-08T20:36:59.948Z,22.66
2023-10-08T20:39:26.478Z,22.63
2023-10-08T20:41:53.109Z,22.64
2023-10-08T20:44:24.871Z,22.58
2023-10-08T20:46:54.292Z,22.58
2023-10-08T20:49:27.023Z,22.54
2023-10-08T20:51:56.880Z,22.54
2023-10-08T20:54:23.627Z,22.49
2023-10-08T20:56:55.000Z,22.48
2023-10-08T20:59:45.835Z,22.42
2023-10-08T21:02:12.885Z,22.42
2023-10-08T21:04:39.718Z,22.38
2023-10-08T21:07:09.614Z,22.37
2023-10-08T21:09:36.247Z,22.33
2023-10-08T21:12:02.924Z,22.30
2023-10-08T21:14:29.868Z,22.29
2023-10-08T21:16:56.630Z,22.25
2023-10-08T21:19:24.212Z,22.21
2023-10-08T21:21:53.175Z,22.18
2023-10-08T21:24:20.004Z,22.14
2023-10-08T21:26:46.673Z,22.10
2023-10-08T21:29:13.593Z,22.06
2023-10-08T21:31:42.455Z,21.98
2023-10-08T21:34:09.177Z,22.02
2023-10-08T21:36:35.893Z,21.90
2023-10-08T21:39:02.548Z,21.90
2023-10-08T21:41:29.181Z,21.89
2023-10-08T21:43:55.777Z,21.79
2023-10-08T21:46:22.357Z,21.81
2023-10-08T21:48:48.949Z,21.82
2023-10-08T21:51:15.716Z,21.78
2023-10-08T21:53:42.495Z,21.77
2023-10-08T21:56:09.909Z,21.77
2023-10-08T21:58:36.537Z,21.78
2023-10-08T22:01:03.198Z,21.75
2023-10-08T22:03:30.106Z,21.76
2023-10-08T22:05:56.806Z,21.69
2023-10-08T22:08:23.406Z,21.64
2023-10-08T22:10:49.966Z,21.67
2023-10-08T22:13:16.582Z,21.66
2023-10-08T22:15:43.255Z,21.62
2023-10-08T22:18:09.919Z,21.63
2023-10-08T22:20:37.028Z,21.59
2023-10-08T22:23:05.244Z,21.59
2023-10-08T22:25:33.642Z,21.56
2023-10-08T22:28:01.455Z,21.50
2023-10-08T22:30:28.316Z,21.47
2023-10-08T22:32:56.129Z,21.37
2023-10-08T22:35:23.326Z,21.41
2023-10-08T22:37:49.998Z,21.35
2023-10-08T22:40:16.624Z,21.34
2023-10-08T22:42:43.170Z,21.35
2023-10-08T22:45:10.195Z,21.34
2023-10-08T22:47:36.733Z,21.32
2023-10-08T22:50:03.437Z,21.34
2023-10-08T22:52:30.036Z,21.32
2023-10-08T22:54:56.597Z,21.31
2023-10-08T22:57:23.131Z,21.29
2023-10-08T22:59:49.910Z,21.26
2023-10-08T23:02:19.276Z,21.25
2023-10-08T23:04:45.984Z,21.28
2023-10-08T23:07:12.609Z,21.27
2023-10-08T23:09:39.298Z,21.28
2023-10-08T23:12:06.315Z,21.26
2023-10-08T23:14:32.931Z,21.19
2023-10-08T23:16:59.706Z,21.14
2023-10-08T23:19:26.328Z,21.17
2023-10-08T23:21:53.546Z,21.12
2023-10-08T23:24:20.496Z,21.14
2023-10-08T23:26:47.061Z,21.11
2023-10-08T23:29:13.670Z,21.06
2023-10-08T23:31:40.280Z,21.12
2023-10-08T23:34:06.992Z,21.08
2023-10-08T23:36:33.652Z,21.07
2023-10-08T23:39:02.214Z,21.04
2023-10-08T23:41:28.920Z,21.02
2023-10-08T23:43:55.577Z,20.97
2023-10-08T23:46:26.201Z,20.93
2023-10-08T23:48:52.923Z,20.90
2023-10-08T23:51:21.535Z,20.83
2023-10-08T23:53:48.133Z,20.82
2023-10-08T23:56:14.753Z,20.80
2023-10-08T23:58:41.404Z,20.82
